Terminal Aerodrome Forecast
Issued by NWS Charleston, WV

Current Version | Previous Version | Text Only | Print | Product List | Glossary Off
Versions: 1 2 3 4 5 6 7 8 9 10 11 12 13 14 15 16 17 18 19 20 21 22

579
FTUS41 KRLX 121120
TAFCRW
TAF
KCRW 121120Z 1212/1312 00000KT P6SM BKN250
     FM121700 28005KT 5SM -SN OVC035
     FM122100 27010G19KT P6SM OVC035
     FM130400 30012G23KT 2SM -SHSN OVC015=

USA.gov is the U.S. government's official web portal to all federal, state and local government web resources and services.